Airport View

Enter AWOS ICAO identifier for current METAR.

ex. KFNL

KAIK 212315Z AUTO 14004KT 10SM CLR 27/12 A3024 RMK AO2

21 Sep 2019 23:39

Frequency: 118.025

Phone: 803-643-8664

Other Area AWOS: KDNL - KAGS - KBNL - KCAE

TAF AMD KDNL 212035Z 2121/2218 VRB04KT P6SM FEW050